Time;durP1;ratioP1;P1;durP2;ratioP2;P2;SDS_P1;SDS_P2;PMS_P1;PMS_P2;Temp;Humidity;BMP_temperature;BMP_pressure;BME280_temperature;BME280_humidity;BME280_pressure;Samples;Min_cycle;Max_cycle;Signal;HPM_P1;HPM_P2
2021/04/23 04:15:47;;;;;;;15.02;4.72;;;;;;;0.73;74.73;99717.34;5794095;23;20051;-71
2021/04/23 04:18:13;;;;;;;13.05;4.88;;;;;;;0.69;74.88;99721.47;4956591;28;20046;-70
2021/04/23 04:20:42;;;;;;;35.28;9.73;;;;;;;0.67;74.80;99717.97;4955967;28;20038;-70
2021/04/23 04:23:09;;;;;;;25.10;8.07;;;;;;;0.72;76.29;99731.75;4956395;28;20105;-70
2021/04/23 04:25:37;;;;;;;50.83;11.57;;;;;;;0.71;75.06;99724.06;4956495;28;20074;-70
2021/04/23 04:28:05;;;;;;;59.42;14.32;;;;;;;0.75;74.97;99729.31;4956441;29;20090;-71
2021/04/23 04:30:30;;;;;;;14.98;5.95;;;;;;;0.74;74.67;99725.03;4996260;23;20467;-71
2021/04/23 04:32:57;;;;;;;14.25;5.07;;;;;;;0.76;74.79;99727.63;4956087;28;20039;-72
2021/04/23 04:35:23;;;;;;;7.22;4.70;;;;;;;0.69;74.67;99729.09;4938316;28;20111;-71
2021/04/23 04:37:49;;;;;;;14.20;4.55;;;;;;;0.68;74.66;99734.16;4937139;29;20036;-72
2021/04/23 04:40:16;;;;;;;9.23;4.47;;;;;;;0.75;75.32;99736.97;4937008;29;20551;-72
2021/04/23 04:42:42;;;;;;;12.43;4.93;;;;;;;0.59;74.93;99738.91;4937016;29;20473;-71
2021/04/23 04:45:11;;;;;;;13.30;4.90;;;;;;;0.49;75.59;99747.91;4937005;29;20499;-71
2021/04/23 04:47:36;;;;;;;14.97;5.20;;;;;;;0.50;75.42;99747.09;4936756;29;20032;-71
2021/04/23 04:50:06;;;;;;;13.35;5.35;;;;;;;0.49;76.10;99741.13;4936591;29;20030;-71
2021/04/23 04:52:31;;;;;;;22.52;4.95;;;;;;;0.50;75.97;99744.53;4937086;29;20440;-71
2021/04/23 04:54:56;;;;;;;15.02;5.47;;;;;;;0.45;76.41;99748.59;4936855;29;20107;-71
2021/04/23 04:57:22;;;;;;;8.90;5.43;;;;;;;0.47;76.65;99744.41;4936643;29;20055;-72
2021/04/23 04:59:48;;;;;;;15.52;5.63;;;;;;;0.69;75.99;99752.06;4936511;29;20118;-71
2021/04/23 05:02:14;;;;;;;11.25;5.55;;;;;;;0.74;75.59;99745.44;4936541;29;20036;-71
2021/04/23 05:04:40;;;;;;;14.63;5.60;;;;;;;0.87;75.22;99750.97;4936781;29;20110;-71
2021/04/23 05:07:06;;;;;;;9.50;5.10;;;;;;;1.01;75.41;99749.78;4936669;29;20704;-71
2021/04/23 05:09:32;;;;;;;15.65;6.47;;;;;;;1.02;74.56;99756.66;4936321;29;20460;-71
2021/04/23 05:11:57;;;;;;;15.55;5.30;;;;;;;0.99;74.50;99762.50;4936267;29;20027;-71
2021/04/23 05:14:22;;;;;;;10.57;5.35;;;;;;;1.00;74.70;99763.38;4936369;29;20038;-71
2021/04/23 05:16:50;;;;;;;18.30;5.65;;;;;;;1.06;74.19;99761.03;4936337;29;20481;-71
2021/04/23 05:19:15;;;;;;;18.60;6.32;;;;;;;1.02;74.45;99766.88;4936457;29;20421;-71
2021/04/23 05:21:41;;;;;;;21.05;6.63;;;;;;;1.14;74.27;99767.28;4935998;29;20035;-71
2021/04/23 05:24:06;;;;;;;15.68;5.95;;;;;;;1.13;74.01;99774.91;4936139;29;20086;-71
2021/04/23 05:26:32;;;;;;;11.80;5.72;;;;;;;1.25;73.95;99768.53;4936192;29;20399;-71
2021/04/23 05:28:57;;;;;;;13.30;5.45;;;;;;;1.58;73.35;99769.63;4935930;29;20512;-71
2021/04/23 05:31:22;;;;;;;15.30;5.57;;;;;;;1.89;72.67;99769.00;4935049;29;20536;-71
2021/04/23 05:33:48;;;;;;;12.40;5.13;;;;;;;1.85;71.58;99764.59;4935954;29;20368;-71
2021/04/23 05:36:13;;;;;;;16.92;6.65;;;;;;;1.80;71.68;99772.97;4936193;29;20047;-71
2021/04/23 05:38:38;;;;;;;14.55;6.32;;;;;;;1.61;71.99;99777.41;4935746;29;20027;-71
2021/04/23 05:41:04;;;;;;;11.25;5.72;;;;;;;1.83;71.02;99771.31;4935719;29;20035;-71
2021/04/23 05:43:29;;;;;;;18.00;6.10;;;;;;;1.90;71.47;99783.50;4935809;29;20019;-71
2021/04/23 05:45:54;;;;;;;19.85;5.90;;;;;;;2.24;70.69;99773.53;4935756;29;20047;-71
2021/04/23 05:48:20;;;;;;;17.00;5.90;;;;;;;2.28;70.10;99774.50;4935623;29;20042;-71
2021/04/23 05:50:46;;;;;;;9.70;5.32;;;;;;;2.39;70.30;99778.25;4935463;28;20045;-72
2021/04/23 05:53:12;;;;;;;17.27;6.05;;;;;;;2.49;69.33;99781.94;4935763;29;20016;-72
2021/04/23 05:55:38;;;;;;;14.25;5.82;;;;;;;2.69;69.21;99783.41;4935612;29;20536;-72
2021/04/23 05:58:05;;;;;;;10.00;5.80;;;;;;;2.92;69.20;99785.78;4935623;29;20036;-71
2021/04/23 06:00:34;;;;;;;15.02;5.93;;;;;;;3.16;67.65;99789.03;4935327;29;20031;-71
2021/04/23 06:03:01;;;;;;;13.88;5.57;;;;;;;2.97;66.99;99794.47;4935674;29;20039;-71
2021/04/23 06:05:28;;;;;;;11.15;5.53;;;;;;;3.15;67.18;99791.56;4930465;29;20038;-71
2021/04/23 06:07:59;;;;;;;13.15;5.57;;;;;;;3.03;67.04;99795.50;4941279;29;20028;-71
2021/04/23 06:10:25;;;;;;;13.23;5.70;;;;;;;3.27;67.40;99797.00;4942117;28;20043;-71
2021/04/23 06:12:51;;;;;;;17.05;5.20;;;;;;;3.46;66.32;99798.38;4957336;28;20023;-72
2021/04/23 06:15:16;;;;;;;19.10;5.47;;;;;;;3.68;66.01;99804.94;4952643;29;20399;-71
2021/04/23 06:17:42;;;;;;;15.98;5.18;;;;;;;3.77;65.02;99810.28;4953475;28;20059;-71
2021/04/23 06:20:15;;;;;;;17.95;5.43;;;;;;;4.23;64.11;99793.50;4953880;28;20550;-71
2021/04/23 06:22:40;;;;;;;11.30;5.18;;;;;;;4.29;64.77;99797.06;4954702;28;20027;-72
2021/04/23 06:25:11;;;;;;;14.00;5.90;;;;;;;4.98;61.63;99792.56;4954154;28;20944;-71
2021/04/23 06:27:38;;;;;;;14.55;4.97;;;;;;;5.11;61.21;99802.28;4953383;28;20027;-72
2021/04/23 06:30:07;;;;;;;8.23;4.93;;;;;;;5.43;59.43;99794.34;4953275;28;20055;-71
2021/04/23 06:32:32;;;;;;;10.63;5.18;;;;;;;5.28;60.01;99785.50;4954024;28;20030;-71
2021/04/23 06:34:58;;;;;;;20.52;5.05;;;;;;;5.40;59.10;99785.72;4954155;28;20064;-71
2021/04/23 06:37:23;;;;;;;10.43;4.90;;;;;;;5.64;58.11;99794.75;4953679;29;20547;-71
2021/04/23 06:39:48;;;;;;;38.67;18.38;;;;;;;6.29;57.05;99787.31;4952612;29;20031;-71
2021/04/23 06:42:14;;;;;;;16.40;5.88;;;;;;;6.52;56.29;99792.78;4953644;28;20409;-72
2021/04/23 06:44:40;;;;;;;9.77;5.07;;;;;;;7.14;53.92;99791.91;4953695;29;20023;-72
2021/04/23 06:47:05;;;;;;;11.73;4.97;;;;;;;7.24;52.32;99795.44;4953707;28;20023;-71
2021/04/23 06:49:30;;;;;;;10.80;4.85;;;;;;;7.78;52.25;99786.56;4953794;28;20038;-70
2021/04/23 06:51:57;;;;;;;10.70;4.43;;;;;;;9.71;45.10;99775.63;4952359;28;20071;-71
2021/04/23 06:54:23;;;;;;;14.15;4.80;;;;;;;10.86;43.46;99772.97;4953855;28;20026;-71
2021/04/23 06:56:48;;;;;;;15.10;4.57;;;;;;;12.21;39.90;99778.28;4953688;29;20031;-71
2021/04/23 06:59:13;;;;;;;12.73;5.15;;;;;;;13.14;37.65;99782.50;4962595;28;20031;-71
2021/04/23 07:01:39;;;;;;;8.43;4.65;;;;;;;14.04;36.41;99773.47;4956547;28;20090;-71
2021/04/23 07:04:04;;;;;;;18.00;4.30;;;;;;;14.59;36.75;99777.75;4952620;28;20030;-71
2021/04/23 07:06:29;;;;;;;9.40;4.03;;;;;;;16.42;31.68;99766.78;4953577;29;20503;-71
2021/04/23 07:08:55;;;;;;;12.32;4.20;;;;;;;16.95;30.39;99778.47;4953463;28;20042;-71
2021/04/23 07:11:21;;;;;;;8.50;4.00;;;;;;;16.68;30.86;99779.19;4952832;28;20023;-71
2021/04/23 07:13:46;;;;;;;9.48;4.75;;;;;;;17.80;29.74;99774.25;4952743;28;20062;-71
2021/04/23 07:16:12;;;;;;;7.43;4.38;;;;;;;16.16;32.08;99783.16;4952684;29;20047;-71
2021/04/23 07:18:38;;;;;;;13.20;4.07;;;;;;;18.27;29.46;99778.84;4956956;28;20630;-72
2021/04/23 07:21:03;;;;;;;12.70;4.70;;;;;;;18.16;29.59;99782.69;4964385;28;20034;-72
2021/04/23 07:23:28;;;;;;;10.70;4.40;;;;;;;20.05;26.22;99774.06;4955507;28;20027;-71
2021/04/23 07:25:54;;;;;;;18.55;5.13;;;;;;;17.62;28.36;99786.13;4952554;29;20464;-71
2021/04/23 07:28:19;;;;;;;10.70;4.20;;;;;;;15.88;31.74;99796.03;4953424;28;20357;-71
2021/04/23 07:30:45;;;;;;;12.85;4.75;;;;;;;19.41;27.17;99780.06;4953013;28;20024;-72
2021/04/23 07:33:14;;;;;;;20.50;5.20;;;;;;;17.60;28.55;99790.56;4953489;28;20027;-71
2021/04/23 07:35:44;;;;;;;15.82;4.70;;;;;;;20.29;25.89;99778.31;4935238;28;20075;-72
2021/04/23 07:38:11;;;;;;;10.52;4.35;;;;;;;20.73;24.65;99782.63;4933184;29;20046;-72
2021/04/23 07:40:37;;;;;;;10.55;4.55;;;;;;;20.99;24.78;99776.22;4933889;29;20027;-72
2021/04/23 07:43:03;;;;;;;13.98;4.78;;;;;;;20.56;24.86;99779.88;4934033;29;20131;-72
2021/04/23 07:45:28;;;;;;;14.93;4.20;;;;;;;20.55;24.57;99784.31;4934184;29;20454;-72
2021/04/23 07:47:55;;;;;;;16.40;4.43;;;;;;;19.98;25.47;99777.88;4933922;29;20027;-71
2021/04/23 07:50:22;;;;;;;8.98;4.47;;;;;;;20.09;25.44;99774.78;4933007;29;20086;-71
2021/04/23 07:52:48;;;;;;;11.38;4.13;;;;;;;19.70;26.17;99784.22;4932686;29;20027;-71
2021/04/23 07:55:15;;;;;;;12.65;4.65;;;;;;;20.97;24.02;99778.06;4935218;29;20390;-72
2021/04/23 07:57:41;;;;;;;19.13;5.13;;;;;;;17.19;28.88;99791.78;4947062;29;20026;-71
2021/04/23 08:00:09;;;;;;;15.90;4.57;;;;;;;14.89;32.32;99801.53;4947073;29;20019;-71
2021/04/23 08:02:35;;;;;;;16.38;4.38;;;;;;;19.37;26.43;99774.97;4936532;29;20485;-71
2021/04/23 08:05:00;;;;;;;9.88;4.22;;;;;;;21.25;24.41;99769.78;4937484;29;20055;-71
2021/04/23 08:07:26;;;;;;;11.48;4.53;;;;;;;22.14;22.66;99771.72;4937241;29;20027;-71
2021/04/23 08:09:51;;;;;;;14.77;4.97;;;;;;;22.14;22.32;99766.44;4937102;29;20035;-71
2021/04/23 08:12:17;;;;;;;9.57;3.95;;;;;;;21.62;24.08;99774.22;4936743;29;20019;-71
2021/04/23 08:14:42;;;;;;;11.00;3.70;;;;;;;21.79;22.86;99776.91;4936909;29;20051;-71
2021/04/23 08:17:08;;;;;;;12.55;3.80;;;;;;;22.72;22.36;99762.63;4937235;29;20030;-71
2021/04/23 08:19:34;;;;;;;13.93;4.20;;;;;;;22.68;21.96;99775.16;4937102;29;20034;-71
2021/04/23 08:22:00;;;;;;;10.02;3.55;;;;;;;22.75;22.07;99773.03;4936786;29;20536;-72
2021/04/23 08:24:25;;;;;;;12.20;3.97;;;;;;;23.12;21.92;99771.16;4936147;29;20122;-72
2021/04/23 08:26:51;;;;;;;13.50;4.47;;;;;;;21.56;23.49;99774.50;4941009;29;20102;-72
2021/04/23 08:29:16;;;;;;;9.80;3.63;;;;;;;24.44;21.14;99754.00;4948026;28;20043;-72
2021/04/23 08:31:43;;;;;;;15.55;4.07;;;;;;;24.66;20.47;99764.16;4947344;28;20054;-72
2021/04/23 08:34:10;;;;;;;18.65;3.92;;;;;;;24.17;20.79;99767.03;4936807;29;20032;-72
2021/04/23 08:36:36;;;;;;;15.63;4.03;;;;;;;23.96;20.72;99766.50;4935917;29;20043;-71
2021/04/23 08:39:03;;;;;;;15.57;3.90;;;;;;;24.48;20.60;99758.19;4936625;29;20501;-71
2021/04/23 08:41:29;;;;;;;17.00;4.95;;;;;;;24.29;20.18;99764.53;4936605;29;20054;-72
2021/04/23 08:43:54;;;;;;;12.00;4.05;;;;;;;25.02;19.86;99756.63;4936729;29;20032;-72
2021/04/23 08:46:19;;;;;;;15.25;4.30;;;;;;;24.65;19.86;99759.81;4936781;29;20099;-72
2021/04/23 08:48:47;;;;;;;11.45;3.90;;;;;;;24.64;19.52;99761.63;4935724;29;20426;-72
2021/04/23 08:51:14;;;;;;;10.55;3.90;;;;;;;24.52;19.65;99759.72;4936162;29;20508;-72
2021/04/23 08:53:40;;;;;;;10.70;4.55;;;;;;;23.13;21.14;99764.91;4936486;29;20031;-72
2021/04/23 08:56:06;;;;;;;12.25;3.67;;;;;;;23.09;21.59;99761.56;4936399;29;20027;-72
2021/04/23 08:58:31;;;;;;;8.82;3.53;;;;;;;23.61;21.06;99758.72;4939517;29;20225;-72
2021/04/23 09:00:57;;;;;;;10.52;4.05;;;;;;;22.03;22.51;99760.81;4944106;28;20031;-71
2021/04/23 09:03:24;;;;;;;10.82;4.30;;;;;;;21.55;23.14;99762.25;4936388;29;20028;-71
2021/04/23 09:06:20;;;;;;;17.52;4.40;;;;;;;22.45;22.47;99759.63;4936116;29;20107;-71
2021/04/23 09:08:51;;;;;;;10.98;4.30;;;;;;;23.95;20.88;99756.84;4936118;29;20477;-71
2021/04/23 09:11:22;;;;;;;11.52;4.28;;;;;;;19.31;25.42;99783.94;4922111;29;20032;-71
2021/04/23 09:13:58;;;;;;;14.48;4.20;;;;;;;21.91;23.01;99764.91;4917190;29;20026;-70
2021/04/23 09:16:26;;;;;;;17.25;4.18;;;;;;;22.78;21.86;99763.19;4921014;29;20034;-70
2021/04/23 09:19:12;;;;;;;12.93;4.07;;;;;;;25.41;20.08;99756.91;4924016;29;20023;-70
2021/04/23 09:21:48;;;;;;;10.35;3.85;;;;;;;25.80;18.68;99749.06;4916642;29;20034;-70
2021/04/23 09:24:40;;;;;;;15.07;4.82;;;;;;;22.95;21.58;99769.38;4916408;29;20545;-70
2021/04/23 09:27:08;;;;;;;12.15;4.65;;;;;;;22.65;22.44;99758.59;4928156;29;20034;-70
2021/04/23 09:29:35;;;;;;;11.98;4.65;;;;;;;22.65;22.25;99755.97;4927131;29;20480;-70
2021/04/23 09:32:15;;;;;;;15.98;4.53;;;;;;;23.24;21.61;99755.44;4912606;29;20966;-70
2021/04/23 09:34:56;;;;;;;12.68;4.47;;;;;;;23.33;21.58;99760.25;4926657;29;20143;-70
2021/04/23 09:37:23;;;;;;;14.25;4.53;;;;;;;23.65;20.89;99754.16;4896292;29;20449;-70
2021/04/23 09:39:51;;;;;;;14.38;4.45;;;;;;;22.60;22.12;99758.84;4920481;29;20024;-70
2021/04/23 09:42:18;;;;;;;10.45;4.93;;;;;;;22.71;21.28;99756.47;4932688;29;20024;-70
2021/04/23 09:44:47;;;;;;;14.32;5.15;;;;;;;18.77;25.93;99768.44;4926845;29;20027;-70
2021/04/23 09:47:18;;;;;;;10.55;4.35;;;;;;;23.61;21.32;99753.44;4915547;29;20024;-70
2021/04/23 09:49:51;;;;;;;16.13;6.10;;;;;;;23.93;20.43;99748.97;4916186;29;20435;-70
2021/04/23 09:52:16;;;;;;;12.55;4.25;;;;;;;23.05;21.87;99760.03;4916458;29;20020;-70
2021/04/23 09:54:53;;;;;;;12.75;5.25;;;;;;;22.87;21.66;99755.69;4916588;29;20470;-70
2021/04/23 09:57:20;;;;;;;16.48;4.45;;;;;;;23.39;21.89;99752.91;4915516;29;20024;-70
2021/04/23 09:59:48;;;;;;;14.80;4.85;;;;;;;24.20;21.06;99750.97;4942450;29;20066;-71
2021/04/23 10:02:15;;;;;;;11.80;4.72;;;;;;;23.75;20.83;99750.91;4935718;29;20034;-70
2021/04/23 10:04:41;;;;;;;16.15;5.15;;;;;;;22.00;22.21;99748.63;4935189;29;20695;-70
2021/04/23 10:07:20;;;;;;;10.32;4.05;;;;;;;23.43;22.14;99743.88;4933938;29;20118;-70
2021/04/23 10:09:55;;;;;;;17.63;4.40;;;;;;;23.01;21.33;99747.91;4933821;29;20481;-70
2021/04/23 10:12:26;;;;;;;15.27;4.40;;;;;;;22.71;21.82;99745.91;4935270;29;20477;-70
2021/04/23 10:14:57;;;;;;;9.57;4.30;;;;;;;24.08;19.70;99748.13;4934951;29;20070;-70
2021/04/23 10:17:23;;;;;;;10.40;4.72;;;;;;;21.37;22.36;99753.44;4934636;29;20106;-70
2021/04/23 10:19:49;;;;;;;8.90;3.60;;;;;;;23.41;20.67;99756.34;4934651;29;20061;-70
2021/04/23 10:22:15;;;;;;;9.65;4.20;;;;;;;25.04;19.39;99748.56;4934141;29;20122;-72
2021/04/23 10:24:41;;;;;;;15.23;4.55;;;;;;;24.21;19.96;99742.94;4934925;29;20098;-71
2021/04/23 10:27:07;;;;;;;15.95;4.65;;;;;;;23.37;20.85;99746.84;4934816;29;20036;-72
2021/04/23 10:29:34;;;;;;;8.90;4.00;;;;;;;23.54;21.47;99744.13;4980768;23;20039;-74
2021/04/23 10:31:59;;;;;;;12.05;4.50;;;;;;;22.98;21.46;99738.38;4959689;28;20059;-73
2021/04/23 10:34:25;;;;;;;17.90;9.50;;;;;;;22.51;22.28;99735.53;4956106;28;20035;-74
2021/04/23 10:36:50;;;;;;;16.83;4.85;;;;;;;22.99;21.69;99733.94;4957789;28;20024;-74
2021/04/23 10:39:15;;;;;;;12.98;4.40;;;;;;;22.61;22.23;99728.84;4936823;28;20031;-74
2021/04/23 10:41:41;;;;;;;18.40;4.63;;;;;;;21.77;22.81;99726.00;4943242;29;20039;-74
2021/04/23 10:44:08;;;;;;;16.10;4.68;;;;;;;22.17;23.42;99734.63;4938971;29;20032;-74
2021/04/23 10:46:49;;;;;;;13.55;4.57;;;;;;;22.78;22.06;99731.47;4944030;28;20035;-74
2021/04/23 10:49:14;;;;;;;12.07;4.80;;;;;;;23.95;21.34;99719.78;4943131;28;20062;-74
2021/04/23 10:51:41;;;;;;;11.63;4.72;;;;;;;24.27;20.38;99718.75;4941573;28;20060;-74
2021/04/23 10:54:16;;;;;;;15.00;4.85;;;;;;;24.52;19.75;99714.66;4942413;28;20437;-74
2021/04/23 10:56:53;;;;;;;14.30;4.63;;;;;;;24.81;19.53;99716.38;4940985;28;20035;-74
2021/04/23 10:59:26;;;;;;;7.20;3.92;;;;;;;24.01;21.16;99720.28;4943439;28;20551;-74
2021/04/23 11:01:52;;;;;;;9.38;4.20;;;;;;;25.24;19.90;99708.44;4943482;28;20058;-74
2021/04/23 11:04:20;;;;;;;11.65;4.55;;;;;;;24.14;20.09;99707.19;4939773;29;20051;-74
2021/04/23 11:06:59;;;;;;;11.50;4.40;;;;;;;23.00;20.99;99719.75;4940796;29;20579;-74
2021/04/23 11:09:25;;;;;;;13.77;4.30;;;;;;;22.72;22.96;99715.06;4941860;28;20042;-74
2021/04/23 11:12:06;;;;;;;12.18;5.07;;;;;;;23.69;20.77;99708.03;4943655;28;20387;-74
2021/04/23 11:14:32;;;;;;;9.68;4.55;;;;;;;22.75;21.12;99721.03;4940306;28;20031;-74
2021/04/23 11:17:19;;;;;;;10.45;4.70;;;;;;;22.40;22.01;99711.47;4942118;29;20039;-74
2021/04/23 11:19:49;;;;;;;14.07;4.80;;;;;;;21.44;22.10;99722.34;4941696;28;20028;-74
2021/04/23 11:22:20;;;;;;;13.32;4.40;;;;;;;23.37;20.55;99707.19;4939776;28;20031;-75
2021/04/23 11:25:17;;;;;;;9.60;3.97;;;;;;;23.61;20.79;99705.81;4942927;29;20629;-74
2021/04/23 11:28:01;;;;;;;13.65;4.55;;;;;;;23.80;20.44;99706.50;4942066;29;20106;-74
2021/04/23 11:30:28;;;;;;;11.55;4.05;;;;;;;24.31;20.08;99712.31;4942686;28;21452;-74
2021/04/23 11:32:55;;;;;;;16.65;5.35;;;;;;;23.73;19.96;99694.53;4945722;29;20041;-74
2021/04/23 11:35:24;;;;;;;11.90;4.95;;;;;;;24.72;19.96;99703.69;4945092;29;20053;-74
2021/04/23 11:37:58;;;;;;;11.80;4.43;;;;;;;23.75;20.00;99707.69;4946911;28;20027;-74
2021/04/23 11:40:25;;;;;;;15.02;4.82;;;;;;;23.81;19.47;99696.75;4946870;29;20121;-74
2021/04/23 11:43:02;;;;;;;14.63;4.65;;;;;;;24.10;20.23;99697.69;4944740;29;20035;-75
2021/04/23 11:45:30;;;;;;;16.17;4.80;;;;;;;23.84;19.80;99696.59;4944937;29;20156;-76
2021/04/23 11:48:04;;;;;;;9.80;4.00;;;;;;;24.56;19.77;99690.53;4941999;29;20174;-76
2021/04/23 11:50:35;;;;;;;11.73;4.93;;;;;;;24.70;18.96;99689.66;4935754;29;20059;-74
2021/04/23 11:53:12;;;;;;;8.82;4.63;;;;;;;24.49;19.65;99685.69;4945358;28;20024;-76
2021/04/23 11:55:42;;;;;;;9.85;4.82;;;;;;;24.14;20.30;99693.09;4944884;28;20115;-74
2021/04/23 11:58:22;;;;;;;12.40;4.88;;;;;;;22.79;21.17;99701.44;4943056;28;20424;-74
2021/04/23 12:00:54;;;;;;;16.52;5.78;;;;;;;21.35;23.51;99696.41;4944058;28;20492;-74
2021/04/23 12:03:20;;;;;;;14.32;6.10;;;;;;;21.14;24.48;99691.19;4944364;29;20437;-74
2021/04/23 12:05:46;;;;;;;13.25;4.70;;;;;;;19.61;25.11;99689.91;4944130;28;20440;-74
2021/04/23 12:08:19;;;;;;;12.25;4.65;;;;;;;18.91;26.08;99693.50;4946044;28;20031;-74
2021/04/23 12:10:45;;;;;;;16.55;5.35;;;;;;;18.55;26.68;99685.16;4944329;29;20066;-74
2021/04/23 12:13:15;;;;;;;12.93;5.60;;;;;;;18.48;27.38;99689.75;4944146;28;20086;-76
2021/04/23 12:15:42;;;;;;;14.93;4.93;;;;;;;18.39;27.63;99686.59;4946507;28;20027;-74
2021/04/23 12:18:09;;;;;;;15.73;5.03;;;;;;;17.95;27.85;99678.50;4942868;28;20039;-74
2021/04/23 12:20:43;;;;;;;13.93;5.00;;;;;;;17.89;27.86;99666.47;4945040;29;20030;-74
2021/04/23 12:23:13;;;;;;;15.10;5.18;;;;;;;18.04;27.66;99670.34;4944500;28;20066;-74
2021/04/23 12:25:44;;;;;;;16.13;5.18;;;;;;;18.31;27.71;99670.28;4943929;28;20031;-74
2021/04/23 12:28:25;;;;;;;14.30;4.95;;;;;;;18.11;27.24;99674.44;4940817;28;20642;-74
2021/04/23 12:30:59;;;;;;;13.20;4.70;;;;;;;18.26;28.25;99669.56;4944266;28;20035;-74
2021/04/23 12:33:35;;;;;;;32.88;4.38;;;;;;;18.15;27.51;99662.09;4941778;29;21389;-74
2021/04/23 12:36:11;;;;;;;13.00;4.45;;;;;;;18.30;27.06;99663.31;4939671;29;20062;-74
2021/04/23 12:38:41;;;;;;;18.50;4.38;;;;;;;18.22;26.95;99666.19;4944133;29;20031;-74
2021/04/23 12:41:16;;;;;;;12.85;5.53;;;;;;;18.26;26.76;99661.72;4943213;28;20072;-74
2021/04/23 12:43:42;;;;;;;10.95;4.55;;;;;;;18.29;27.32;99656.38;4942975;28;20157;-74
2021/04/23 12:46:18;;;;;;;10.98;4.88;;;;;;;17.81;27.25;99657.13;4945927;28;20596;-75
2021/04/23 12:48:43;;;;;;;15.77;6.00;;;;;;;17.79;27.69;99661.56;4940204;28;20032;-75
2021/04/23 12:51:09;;;;;;;22.42;6.22;;;;;;;17.38;28.99;99661.09;4942651;28;20030;-74
2021/04/23 12:53:34;;;;;;;12.88;5.10;;;;;;;17.83;28.26;99657.94;4943469;29;20078;-74
2021/04/23 12:55:59;;;;;;;14.32;5.95;;;;;;;17.85;27.47;99650.88;4944002;28;20031;-74
2021/04/23 12:58:25;;;;;;;18.75;6.25;;;;;;;17.76;28.49;99652.03;4941783;28;20041;-75
2021/04/23 13:00:50;;;;;;;9.10;4.75;;;;;;;17.96;28.59;99646.97;4944521;28;20031;-73
2021/04/23 13:03:22;;;;;;;14.15;4.63;;;;;;;18.13;28.21;99648.16;4943282;28;20035;-74
2021/04/23 13:05:48;;;;;;;12.50;4.50;;;;;;;17.84;27.67;99649.16;4940747;28;20093;-74
2021/04/23 13:08:19;;;;;;;10.73;4.57;;;;;;;17.84;28.19;99642.16;4940290;28;20023;-72
2021/04/23 13:10:51;;;;;;;13.43;5.22;;;;;;;17.32;29.39;99645.59;4941718;29;20027;-73
2021/04/23 13:13:20;;;;;;;14.02;5.13;;;;;;;16.77;30.06;99649.88;4943075;29;20153;-73
2021/04/23 13:15:50;;;;;;;11.25;5.32;;;;;;;17.75;28.71;99639.00;4941737;28;20042;-74
2021/04/23 13:18:22;;;;;;;12.48;5.57;;;;;;;17.73;27.80;99636.41;4945541;28;20027;-74
2021/04/23 13:21:09;;;;;;;13.48;5.10;;;;;;;17.71;27.55;99633.81;4942113;29;20385;-74
2021/04/23 13:23:37;;;;;;;20.10;4.82;;;;;;;18.20;28.62;99636.56;4944742;29;20035;-74
2021/04/23 13:26:05;;;;;;;18.48;6.03;;;;;;;17.91;28.25;99629.69;4934559;28;20277;-74
2021/04/23 13:28:31;;;;;;;13.75;5.15;;;;;;;18.35;27.78;99624.66;4943407;28;20035;-78
2021/04/23 13:30:59;;;;;;;12.50;4.65;;;;;;;18.10;27.43;99629.91;4942455;28;20039;-74
2021/04/23 13:33:39;;;;;;;11.85;4.75;;;;;;;17.96;27.74;99628.63;4944318;28;20039;-78
2021/04/23 13:36:14;;;;;;;11.15;4.93;;;;;;;18.10;27.93;99620.28;4942007;28;20485;-79
2021/04/23 13:38:46;;;;;;;11.90;4.60;;;;;;;17.90;27.15;99622.75;4942645;28;20049;-79
2021/04/23 13:41:19;;;;;;;13.13;4.90;;;;;;;17.83;27.30;99621.22;4941878;28;20408;-78
2021/04/23 13:44:01;;;;;;;14.60;4.85;;;;;;;18.10;27.17;99624.66;4941197;28;20122;-75
2021/04/23 13:46:37;;;;;;;13.40;5.10;;;;;;;18.36;27.87;99623.72;4956399;28;20035;-75
2021/04/23 13:49:37;;;;;;;13.73;5.30;;;;;;;18.52;27.52;99622.28;4939100;28;20046;-75
2021/04/23 13:52:05;;;;;;;;;;;;;;;18.36;27.39;99621.09;4938792;28;20086;-79
2021/04/23 13:54:32;;;;;;;12.07;4.35;;;;;;;17.67;27.81;99616.47;4938359;29;19965;-79
2021/04/23 13:57:06;;;;;;;17.83;4.55;;;;;;;18.12;26.71;99615.81;4943536;28;20031;-76
2021/04/23 13:59:33;;;;;;;12.50;4.43;;;;;;;18.30;28.38;99616.09;4944825;28;20034;-78
2021/04/23 14:02:05;;;;;;;8.70;4.70;;;;;;;18.55;28.01;99595.91;4941360;28;20122;-79
2021/04/23 14:04:35;;;;;;;12.75;4.63;;;;;;;18.60;26.74;99596.59;4944072;28;20055;-75
2021/04/23 14:07:02;;;;;;;12.15;4.32;;;;;;;17.63;27.83;99609.63;4945894;28;20027;-79
2021/04/23 14:09:29;;;;;;;8.85;4.45;;;;;;;17.65;28.08;99607.81;4941999;28;20034;-75
2021/04/23 14:11:59;;;;;;;14.32;3.95;;;;;;;18.01;28.01;99610.09;4940568;28;20121;-75
2021/04/23 14:14:32;;;;;;;14.25;5.68;;;;;;;18.16;27.11;99604.31;4943933;28;20027;-75
2021/04/23 14:17:01;;;;;;;9.27;3.83;;;;;;;18.62;27.00;99589.53;4946037;28;20027;-80
2021/04/23 14:19:27;;;;;;;12.05;4.40;;;;;;;18.61;26.69;99590.41;4943741;28;20031;-76
2021/04/23 14:21:53;;;;;;;10.25;3.92;;;;;;;18.61;26.01;99585.16;4928311;29;20027;-77
2021/04/23 14:24:19;;;;;;;11.95;4.35;;;;;;;18.43;27.48;99581.47;4960521;28;20404;-80
2021/04/23 14:26:45;;;;;;;13.27;4.15;;;;;;;18.60;26.21;99578.22;4941011;28;20079;-76
2021/04/23 14:29:15;;;;;;;13.38;4.28;;;;;;;18.23;26.60;99579.59;4944795;28;20035;-80
2021/04/23 14:31:40;;;;;;;10.93;4.85;;;;;;;18.68;25.56;99589.31;4945453;28;20031;-78
2021/04/23 14:34:06;;;;;;;11.13;3.90;;;;;;;18.05;26.58;99580.25;4943883;28;20037;-73
2021/04/23 14:36:32;;;;;;;9.55;4.45;;;;;;;18.47;26.32;99576.97;4945766;28;20035;-74
2021/04/23 14:38:58;;;;;;;13.80;5.00;;;;;;;18.61;25.69;99571.19;4944930;28;20342;-74
2021/04/23 14:41:23;;;;;;;12.00;4.47;;;;;;;18.64;25.62;99574.56;4945223;28;20055;-78
2021/04/23 14:43:49;;;;;;;6.65;3.80;;;;;;;18.70;26.56;99569.09;4939282;28;20031;-78
2021/04/23 14:46:15;;;;;;;11.75;4.82;;;;;;;19.00;25.05;99564.44;4941257;28;20715;-74
2021/04/23 14:48:40;;;;;;;12.63;4.30;;;;;;;19.01;26.05;99562.66;4943248;29;20037;-79
2021/04/23 14:51:06;;;;;;;8.23;3.28;;;;;;;18.69;25.75;99566.53;4949273;28;20045;-74
2021/04/23 14:53:33;;;;;;;7.32;3.80;;;;;;;17.76;26.33;99572.53;4944161;28;20570;-78
2021/04/23 14:55:59;;;;;;;7.63;4.10;;;;;;;17.84;27.44;99573.13;4941498;28;20074;-78
2021/04/23 14:58:27;;;;;;;10.23;4.47;;;;;;;17.61;27.41;99569.50;4940594;28;20373;-79
2021/04/23 15:00:53;;;;;;;7.30;4.38;;;;;;;18.05;26.00;99564.50;4941117;28;20023;-75
2021/04/23 15:03:19;;;;;;;14.65;3.90;;;;;;;18.42;26.48;99563.16;4942408;28;20027;-79
2021/04/23 15:05:45;;;;;;;11.68;4.90;;;;;;;17.68;27.14;99560.50;4948136;28;20370;-75
2021/04/23 15:08:10;;;;;;;13.35;4.55;;;;;;;17.57;27.57;99562.66;4948897;28;20027;-78
2021/04/23 15:10:36;;;;;;;13.80;3.90;;;;;;;18.13;27.89;99561.59;4948061;28;20615;-78
2021/04/23 15:13:04;;;;;;;14.80;4.55;;;;;;;18.29;25.96;99561.91;4950909;28;20388;-79
2021/04/23 15:15:29;;;;;;;12.90;4.32;;;;;;;18.42;25.38;99563.16;4947659;28;20039;-78
2021/04/23 15:17:55;;;;;;;9.73;4.13;;;;;;;18.75;26.00;99554.00;4948422;28;20038;-78
2021/04/23 15:20:21;;;;;;;9.93;3.42;;;;;;;19.00;26.00;99553.03;4950840;28;20031;-74
2021/04/23 15:22:46;;;;;;;11.35;4.18;;;;;;;18.32;25.47;99551.28;4949335;28;20067;-75
2021/04/23 15:25:14;;;;;;;7.22;3.75;;;;;;;17.53;26.91;99550.56;4946189;28;20050;-79
2021/04/23 15:27:41;;;;;;;11.10;3.83;;;;;;;17.69;27.25;99551.72;4950517;28;20035;-77
2021/04/23 15:30:10;;;;;;;8.82;4.03;;;;;;;17.52;26.33;99548.84;4947523;29;20082;-76
2021/04/23 15:32:36;;;;;;;10.18;3.40;;;;;;;18.38;26.70;99545.84;4948014;28;20035;-79
2021/04/23 15:35:03;;;;;;;13.43;3.83;;;;;;;18.08;26.37;99543.41;4944709;28;20086;-78
2021/04/23 15:37:29;;;;;;;9.48;3.83;;;;;;;17.30;26.99;99542.59;4950985;28;20147;-75
2021/04/23 15:39:54;;;;;;;18.13;4.30;;;;;;;17.54;26.85;99544.41;4948552;28;20048;-76
2021/04/23 15:42:20;;;;;;;11.20;4.13;;;;;;;17.57;26.22;99549.56;4948230;28;20592;-75
2021/04/23 15:44:45;;;;;;;9.15;4.05;;;;;;;17.16;27.54;99543.94;4951425;28;20033;-74
2021/04/23 15:47:11;;;;;;;11.02;3.90;;;;;;;17.95;26.57;99542.16;4951324;28;20086;-78
2021/04/23 15:49:38;;;;;;;14.20;4.38;;;;;;;18.06;26.60;99545.22;4948349;28;20038;-82